Time;durP1;ratioP1;P1;durP2;ratioP2;P2;SDS_P1;SDS_P2;PMS_P1;PMS_P2;Temp;Humidity;BMP_temperature;BMP_pressure;BME280_temperature;BME280_humidity;BME280_pressure;Samples;Min_cycle;Max_cycle;Signal;HPM_P1;HPM_P2
2023/12/17 00:01:01;;;;;;;0.70;0.50;;;17.30;67.80;;;;;;5078310;28;20579;-84
2023/12/17 00:03:27;;;;;;;0.80;0.60;;;17.40;67.40;;;;;;5083224;28;20202;-84
2023/12/17 00:05:53;;;;;;;0.65;0.35;;;17.50;67.60;;;;;;5095718;28;20533;-84
2023/12/17 00:08:20;;;;;;;0.50;0.32;;;17.40;67.70;;;;;;5067530;28;20187;-84
2023/12/17 00:10:46;;;;;;;0.88;0.45;;;17.40;67.70;;;;;;5079491;28;20588;-84
2023/12/17 00:13:13;;;;;;;0.60;0.60;;;17.30;67.60;;;;;;5096444;28;20236;-85
2023/12/17 00:15:40;;;;;;;0.93;0.50;;;17.40;67.40;;;;;;5486746;22;20264;-84
2023/12/17 00:18:06;;;;;;;0.40;0.40;;;17.40;67.60;;;;;;5059822;28;20236;-84
2023/12/17 00:20:32;;;;;;;0.60;0.50;;;17.40;67.60;;;;;;5060329;28;20204;-85
2023/12/17 00:22:58;;;;;;;0.70;0.50;;;17.40;67.10;;;;;;5060190;28;20172;-84
2023/12/17 00:25:23;;;;;;;0.60;0.60;;;17.50;67.20;;;;;;5065766;28;20678;-84
2023/12/17 00:27:49;;;;;;;0.70;0.45;;;17.40;67.40;;;;;;5079620;28;20172;-84
2023/12/17 00:30:15;;;;;;;0.50;0.43;;;17.40;67.40;;;;;;5071157;28;20156;-84
2023/12/17 00:32:41;;;;;;;0.85;0.50;;;17.40;67.40;;;;;;5044200;28;20607;-84
2023/12/17 00:35:07;;;;;;;0.85;0.50;;;17.40;67.40;;;;;;5060687;28;20165;-84
2023/12/17 00:37:32;;;;;;;0.65;0.52;;;17.40;67.80;;;;;;5080699;28;20206;-84
2023/12/17 00:39:58;;;;;;;0.85;0.50;;;17.40;67.40;;;;;;5078020;28;20159;-84
2023/12/17 00:42:24;;;;;;;0.73;0.50;;;17.50;67.40;;;;;;5088600;28;20551;-84
2023/12/17 00:44:49;;;;;;;0.50;0.50;;;17.40;67.70;;;;;;5097959;28;20179;-85
2023/12/17 00:47:15;;;;;;;1.13;0.45;;;17.40;67.40;;;;;;5064179;28;20200;-84
2023/12/17 00:49:41;;;;;;;0.50;0.50;;;17.40;67.40;;;;;;5060528;28;20670;-84
2023/12/17 00:52:07;;;;;;;1.13;0.50;;;17.40;67.40;;;;;;5045411;28;20173;-84
2023/12/17 00:54:32;;;;;;;0.55;0.45;;;17.40;67.40;;;;;;5080046;28;20168;-84
2023/12/17 00:56:58;;;;;;;0.57;0.50;;;17.40;67.60;;;;;;5084034;28;20641;-84
2023/12/17 00:59:24;;;;;;;0.80;0.80;;;17.40;67.60;;;;;;5084860;28;20171;-83
2023/12/17 01:01:51;;;;;;;1.40;0.60;;;17.30;67.80;;;;;;5083435;28;20515;-84
2023/12/17 01:04:17;;;;;;;1.25;0.68;;;17.30;67.80;;;;;;5059675;28;20172;-84
2023/12/17 01:06:42;;;;;;;1.13;0.60;;;17.30;67.80;;;;;;5079847;28;20580;-84
2023/12/17 01:09:10;;;;;;;0.40;0.40;;;17.30;67.70;;;;;;5074505;28;20173;-84
2023/12/17 01:11:36;;;;;;;0.77;0.50;;;17.30;68.70;;;;;;5075021;28;20258;-84
2023/12/17 01:14:02;;;;;;;0.55;0.50;;;17.30;67.60;;;;;;5062073;28;20166;-84
2023/12/17 01:16:29;;;;;;;0.30;0.30;;;17.40;67.30;;;;;;5063508;28;20299;-84
2023/12/17 01:18:55;;;;;;;0.43;0.35;;;17.40;67.80;;;;;;5093932;28;20240;-84
2023/12/17 01:23:46;;;;;;;0.80;0.50;;;17.30;67.40;;;;;;5212677;22;20590;-84
2023/12/17 01:26:23;;;;;;;0.75;0.40;;;17.30;67.40;;;;;;5062996;28;20669;-84
2023/12/17 01:28:49;;;;;;;0.47;0.43;;;17.30;67.80;;;;;;5062362;28;20556;-84
2023/12/17 01:31:15;;;;;;;0.77;0.55;;;17.30;67.80;;;;;;5075358;28;20176;-84
2023/12/17 01:33:41;;;;;;;0.50;0.40;;;17.30;68.60;;;;;;5104826;28;20671;-84
2023/12/17 01:36:07;;;;;;;1.00;0.43;;;17.40;67.80;;;;;;5074943;28;20262;-85
2023/12/17 01:38:33;;;;;;;0.68;0.57;;;17.30;68.10;;;;;;5091948;28;20532;-85
2023/12/17 01:43:25;;;;;;;0.65;0.40;;;17.30;67.90;;;;;;5284905;22;20701;-84
2023/12/17 01:45:51;;;;;;;0.38;0.38;;;17.20;68.20;;;;;;5075315;28;20188;-83
2023/12/17 01:48:17;;;;;;;0.70;0.60;;;17.30;68.00;;;;;;5060146;28;20190;-84
2023/12/17 01:50:42;;;;;;;0.75;0.50;;;17.20;68.10;;;;;;5074851;28;20153;-84
2023/12/17 01:53:08;;;;;;;1.75;0.70;;;17.20;67.70;;;;;;5076906;28;20179;-84
2023/12/17 01:55:34;;;;;;;0.63;0.40;;;17.30;67.70;;;;;;5080542;28;20654;-84
2023/12/17 01:58:00;;;;;;;1.02;0.60;;;17.20;67.70;;;;;;5067745;28;20180;-85
2023/12/17 02:00:25;;;;;;;0.80;0.60;;;17.20;68.10;;;;;;5091002;28;20157;-84
2023/12/17 02:02:52;;;;;;;0.88;0.50;;;17.20;68.20;;;;;;5091635;28;20667;-84
2023/12/17 02:05:17;;;;;;;1.17;0.50;;;17.30;67.80;;;;;;5432978;23;20235;-84
2023/12/17 02:07:43;;;;;;;0.82;0.60;;;17.20;67.90;;;;;;5094818;28;20232;-84
2023/12/17 02:10:09;;;;;;;1.23;0.50;;;17.30;67.90;;;;;;5095399;28;20180;-84
2023/12/17 02:12:35;;;;;;;0.50;0.50;;;17.30;67.80;;;;;;5088069;28;20217;-84
2023/12/17 02:15:00;;;;;;;0.90;0.50;;;17.30;68.20;;;;;;5060708;28;20172;-84
2023/12/17 02:17:27;;;;;;;1.48;0.40;;;17.20;67.80;;;;;;5059402;28;20157;-84
2023/12/17 02:19:53;;;;;;;1.23;0.68;;;17.20;68.00;;;;;;5080482;28;20169;-84
2023/12/17 02:24:45;;;;;;;0.75;0.50;;;17.20;68.10;;;;;;5598522;22;20239;-84
2023/12/17 02:27:11;;;;;;;1.38;0.70;;;17.20;68.00;;;;;;5075185;28;20192;-84
2023/12/17 02:29:38;;;;;;;0.68;0.50;;;17.20;67.70;;;;;;5093379;28;20173;-84
2023/12/17 02:32:06;;;;;;;0.88;0.63;;;17.30;67.80;;;;;;5068602;28;20181;-85
2023/12/17 02:34:31;;;;;;;0.70;0.50;;;17.30;68.10;;;;;;5053200;28;20173;-84
2023/12/17 02:36:57;;;;;;;1.20;0.70;;;17.20;67.80;;;;;;5070709;28;20164;-84
2023/12/17 02:39:23;;;;;;;0.85;0.50;;;17.10;67.90;;;;;;5048580;28;20165;-84
2023/12/17 02:41:49;;;;;;;1.70;1.08;;;17.20;67.90;;;;;;5069524;28;20663;-84
2023/12/17 02:44:14;;;;;;;0.73;0.60;;;17.30;68.00;;;;;;5041078;28;20785;-85
2023/12/17 02:46:40;;;;;;;1.10;0.75;;;17.20;68.10;;;;;;5050557;28;20592;-84
2023/12/17 02:49:06;;;;;;;0.60;0.40;;;17.20;68.00;;;;;;5073985;28;20168;-84
2023/12/17 02:51:32;;;;;;;1.20;0.57;;;17.20;67.90;;;;;;5038624;28;20181;-84
2023/12/17 02:54:00;;;;;;;0.73;0.45;;;17.20;68.10;;;;;;5038797;28;20252;-84
2023/12/17 02:56:28;;;;;;;0.45;0.40;;;17.20;68.20;;;;;;5024544;28;20181;-84
2023/12/17 03:01:20;;;;;;;0.85;0.55;;;17.20;68.10;;;;;;5503665;22;20592;-85
2023/12/17 03:03:45;;;;;;;0.90;0.52;;;17.20;68.20;;;;;;5078476;28;20175;-85
2023/12/17 03:06:11;;;;;;;0.65;0.50;;;17.20;68.00;;;;;;5091134;28;20183;-85
2023/12/17 03:11:02;;;;;;;0.70;0.45;;;17.10;68.90;;;;;;5218632;22;20334;-85
2023/12/17 03:13:30;;;;;;;1.15;0.50;;;17.20;68.00;;;;;;5095351;28;20152;-85
2023/12/17 03:15:55;;;;;;;1.20;0.50;;;17.20;68.00;;;;;;5094482;28;20188;-85
2023/12/17 03:18:21;;;;;;;0.85;0.60;;;17.20;68.00;;;;;;5094223;28;20164;-86
2023/12/17 03:20:47;;;;;;;1.02;0.50;;;17.20;68.10;;;;;;5087722;28;20183;-85
2023/12/17 03:23:18;;;;;;;1.77;0.70;;;17.10;68.20;;;;;;5114648;28;20220;-85
2023/12/17 03:25:44;;;;;;;0.75;0.55;;;17.10;68.30;;;;;;5038931;28;20212;-85
2023/12/17 03:28:12;;;;;;;0.70;0.40;;;17.10;68.50;;;;;;5070105;28;20645;-85
2023/12/17 03:30:39;;;;;;;1.20;0.52;;;17.10;68.60;;;;;;5068659;28;20537;-85
2023/12/17 03:33:05;;;;;;;0.43;0.35;;;17.10;68.50;;;;;;5073014;28;20165;-86
2023/12/17 03:35:31;;;;;;;0.82;0.55;;;17.10;68.20;;;;;;5093649;28;20241;-85
2023/12/17 03:37:57;;;;;;;0.45;0.40;;;17.00;68.30;;;;;;5091642;28;20184;-84
2023/12/17 03:42:49;;;;;;;0.77;0.50;;;17.10;68.30;;;;;;5087368;22;20719;-85
2023/12/17 03:45:15;;;;;;;1.27;0.57;;;17.20;68.30;;;;;;5057774;28;20161;-85
2023/12/17 03:47:49;;;;;;;0.50;0.50;;;17.10;68.10;;;;;;5091569;28;20509;-85
2023/12/17 03:50:18;;;;;;;1.75;0.40;;;17.10;68.40;;;;;;5043092;28;20220;-84
2023/12/17 03:52:44;;;;;;;0.63;0.40;;;17.00;68.20;;;;;;5042468;28;20180;-85
2023/12/17 03:55:11;;;;;;;0.77;0.45;;;17.10;68.20;;;;;;5045222;28;20181;-85
2023/12/17 03:57:39;;;;;;;0.90;0.65;;;17.10;68.50;;;;;;5024136;28;20162;-85
2023/12/17 04:00:05;;;;;;;0.47;0.43;;;17.10;68.40;;;;;;5023454;28;20177;-85
2023/12/17 04:02:31;;;;;;;0.80;0.50;;;17.10;68.30;;;;;;5054920;28;20215;-85
2023/12/17 04:04:59;;;;;;;1.40;0.60;;;17.10;68.40;;;;;;5056481;28;20153;-85
2023/12/17 04:09:50;;;;;;;0.90;0.63;;;17.10;68.50;;;;;;5241400;22;20288;-85
2023/12/17 04:12:16;;;;;;;0.90;0.63;;;17.10;68.40;;;;;;5078147;28;20148;-85
2023/12/17 04:14:42;;;;;;;0.63;0.50;;;17.00;68.40;;;;;;5060972;28;20156;-85
2023/12/17 04:19:33;;;;;;;0.90;0.50;;;17.00;68.40;;;;;;5218560;22;20240;-85
2023/12/17 04:21:59;;;;;;;0.80;0.60;;;17.00;68.40;;;;;;5044259;28;20156;-85
2023/12/17 04:24:24;;;;;;;0.93;0.50;;;17.00;68.50;;;;;;5044279;28;20164;-85
2023/12/17 04:26:51;;;;;;;0.77;0.50;;;17.00;68.50;;;;;;5061266;28;20208;-86
2023/12/17 04:29:23;;;;;;;1.13;0.60;;;16.90;68.40;;;;;;5583440;22;20228;-85
2023/12/17 04:34:21;;;;;;;0.68;0.55;;;17.00;68.00;;;;;;5236155;22;20236;-86
2023/12/17 04:36:46;;;;;;;0.85;0.50;;;17.00;68.30;;;;;;5015868;28;20190;-85
2023/12/17 04:39:12;;;;;;;0.65;0.60;;;17.00;68.40;;;;;;5016285;28;20330;-85
2023/12/17 04:41:39;;;;;;;0.73;0.43;;;17.00;68.50;;;;;;4996780;28;20262;-85
2023/12/17 04:46:39;;;;;;;0.85;0.55;;;17.00;69.40;;;;;;5538698;22;20246;-84
2023/12/17 04:49:05;;;;;;;0.90;0.60;;;17.00;68.60;;;;;;5092393;28;20184;-84
2023/12/17 04:54:00;;;;;;;2.00;0.50;;;17.00;68.40;;;;;;5073950;28;20228;-85
2023/12/17 04:56:29;;;;;;;2.00;0.63;;;17.00;68.10;;;;;;5020897;28;20578;-84
2023/12/17 04:58:57;;;;;;;1.63;0.70;;;16.90;68.30;;;;;;5019200;28;20189;-84
2023/12/17 05:01:26;;;;;;;0.45;0.40;;;17.10;68.40;;;;;;5021330;28;20250;-85
2023/12/17 05:03:52;;;;;;;0.57;0.50;;;17.10;68.40;;;;;;5048390;28;20200;-84
2023/12/17 05:06:18;;;;;;;0.55;0.50;;;17.00;68.50;;;;;;5062685;28;20673;-84
2023/12/17 05:08:44;;;;;;;0.88;0.50;;;17.00;68.30;;;;;;5081997;28;20154;-84
2023/12/17 05:11:12;;;;;;;0.60;0.60;;;17.00;68.50;;;;;;5074431;28;20175;-84
2023/12/17 05:13:38;;;;;;;0.90;0.50;;;17.00;68.40;;;;;;5062055;28;20174;-84
2023/12/17 05:16:04;;;;;;;0.88;0.52;;;17.00;68.40;;;;;;5050811;28;20183;-84
2023/12/17 05:18:38;;;;;;;1.08;0.60;;;17.00;68.40;;;;;;5060104;28;20293;-84
2023/12/17 05:21:05;;;;;;;0.70;0.52;;;17.00;68.30;;;;;;5012748;28;20265;-84
2023/12/17 05:23:31;;;;;;;0.75;0.50;;;16.90;68.40;;;;;;5066541;28;20173;-83
2023/12/17 05:28:22;;;;;;;0.47;0.47;;;16.90;68.40;;;;;;5127039;22;20236;-84
2023/12/17 05:30:48;;;;;;;1.02;0.80;;;17.00;68.60;;;;;;5058675;28;20169;-84
2023/12/17 05:33:14;;;;;;;1.38;0.55;;;17.00;68.30;;;;;;5078806;28;20176;-84
2023/12/17 05:35:41;;;;;;;1.13;0.60;;;16.90;68.50;;;;;;5063350;28;20591;-84
2023/12/17 05:38:07;;;;;;;0.60;0.50;;;16.90;68.50;;;;;;5063420;28;20618;-84
2023/12/17 05:40:33;;;;;;;1.63;0.60;;;17.00;68.60;;;;;;5063131;28;20167;-84
2023/12/17 05:45:34;;;;;;;1.05;0.47;;;16.90;68.50;;;;;;5632553;22;20239;-84
2023/12/17 05:48:00;;;;;;;0.70;0.60;;;16.90;68.00;;;;;;5059154;28;20156;-84
2023/12/17 05:50:26;;;;;;;0.80;0.50;;;17.00;68.40;;;;;;5059561;28;20157;-84
2023/12/17 05:52:51;;;;;;;0.60;0.50;;;16.90;68.30;;;;;;5054285;28;20170;-84
2023/12/17 05:55:20;;;;;;;0.57;0.38;;;16.90;68.00;;;;;;5044647;28;20647;-84
2023/12/17 05:57:49;;;;;;;0.70;0.52;;;16.90;68.20;;;;;;5059161;28;20267;-83
2023/12/17 06:00:16;;;;;;;1.67;0.60;;;16.90;68.40;;;;;;5043408;28;20317;-84
2023/12/17 06:02:42;;;;;;;0.50;0.40;;;16.90;68.30;;;;;;5055478;28;20646;-84
2023/12/17 06:05:10;;;;;;;1.25;0.70;;;16.90;68.30;;;;;;5055908;28;20158;-84
2023/12/17 06:07:36;;;;;;;0.70;0.50;;;16.90;68.40;;;;;;5005796;28;20212;-84
2023/12/17 06:10:02;;;;;;;0.57;0.50;;;16.90;68.40;;;;;;5056787;28;20254;-83
2023/12/17 06:12:28;;;;;;;0.55;0.50;;;17.00;68.40;;;;;;5039884;28;20161;-84
2023/12/17 06:14:54;;;;;;;0.45;0.45;;;17.00;68.30;;;;;;5044516;28;20734;-84
2023/12/17 06:17:19;;;;;;;0.75;0.50;;;16.90;68.20;;;;;;5061620;28;20166;-87
2023/12/17 06:19:45;;;;;;;0.90;0.60;;;16.90;68.10;;;;;;5056732;28;20575;-85
2023/12/17 06:22:15;;;;;;;0.45;0.35;;;16.90;68.30;;;;;;5072229;28;20504;-84
2023/12/17 06:24:41;;;;;;;1.25;0.50;;;16.90;68.30;;;;;;5046979;28;20165;-84
2023/12/17 06:27:14;;;;;;;0.60;0.50;;;16.90;68.30;;;;;;5080400;28;20192;-85
2023/12/17 06:29:40;;;;;;;1.05;0.60;;;16.90;68.30;;;;;;5057619;28;20691;-85
2023/12/17 06:32:07;;;;;;;0.70;0.40;;;16.90;68.20;;;;;;5061491;28;20165;-84
2023/12/17 06:34:33;;;;;;;1.00;0.70;;;17.00;68.00;;;;;;5051463;28;20168;-86
2023/12/17 06:37:00;;;;;;;1.08;0.60;;;17.00;68.20;;;;;;5055910;28;20263;-85
2023/12/17 06:39:26;;;;;;;0.60;0.50;;;16.90;68.20;;;;;;5069295;22;20236;-85
2023/12/17 06:41:52;;;;;;;1.05;0.70;;;17.00;67.90;;;;;;5066076;28;20713;-84
2023/12/17 06:44:18;;;;;;;0.80;0.45;;;16.90;68.00;;;;;;5047114;28;20177;-84
2023/12/17 06:46:44;;;;;;;0.40;0.40;;;16.90;67.90;;;;;;5038158;28;20736;-84
2023/12/17 06:51:47;;;;;;;0.65;0.60;;;17.00;68.00;;;;;;5085670;28;20212;-85
2023/12/17 06:54:13;;;;;;;1.17;0.60;;;16.90;68.00;;;;;;5044864;28;20196;-84
2023/12/17 06:56:39;;;;;;;0.88;0.50;;;16.80;68.00;;;;;;5049103;28;20178;-85
2023/12/17 06:59:05;;;;;;;0.63;0.47;;;16.90;68.00;;;;;;5045429;28;20184;-85
2023/12/17 07:01:31;;;;;;;1.05;0.80;;;16.90;68.20;;;;;;5037885;28;20181;-85
2023/12/17 07:03:57;;;;;;;0.63;0.50;;;16.90;68.10;;;;;;5040968;28;20173;-84
2023/12/17 07:06:22;;;;;;;0.38;0.32;;;17.00;68.10;;;;;;5069703;28;20252;-85
2023/12/17 07:08:51;;;;;;;0.75;0.50;;;16.90;68.10;;;;;;5047857;28;20577;-85
2023/12/17 07:11:17;;;;;;;0.80;0.52;;;16.90;68.00;;;;;;5031926;28;20205;-85
2023/12/17 07:13:43;;;;;;;0.60;0.50;;;16.90;68.00;;;;;;5034307;28;21807;-85
2023/12/17 07:16:10;;;;;;;0.70;0.60;;;16.90;68.10;;;;;;5071286;28;20176;-86
2023/12/17 07:21:05;;;;;;;0.85;0.50;;;16.90;68.00;;;;;;5029960;28;20218;-85
2023/12/17 07:23:31;;;;;;;0.57;0.57;;;16.90;68.00;;;;;;4996945;28;20255;-85
2023/12/17 07:25:57;;;;;;;0.98;0.50;;;17.00;67.90;;;;;;5013572;28;20265;-86
2023/12/17 07:28:22;;;;;;;0.98;0.45;;;17.00;67.90;;;;;;5012373;28;20178;-85
2023/12/17 07:30:48;;;;;;;0.85;0.60;;;16.90;67.90;;;;;;5009645;28;20171;-85
2023/12/17 07:33:14;;;;;;;1.02;0.60;;;16.90;68.00;;;;;;5010781;28;20156;-85
2023/12/17 07:35:40;;;;;;;0.50;0.50;;;17.00;67.90;;;;;;5026128;28;20175;-85
2023/12/17 07:38:05;;;;;;;1.33;0.60;;;16.90;67.80;;;;;;5010277;28;20159;-85
2023/12/17 07:40:31;;;;;;;0.50;0.30;;;16.90;67.90;;;;;;5029665;28;20561;-85
2023/12/17 07:42:57;;;;;;;0.82;0.55;;;16.90;68.10;;;;;;5013328;28;20250;-85
2023/12/17 07:45:23;;;;;;;0.80;0.52;;;16.90;68.30;;;;;;5030099;28;20231;-85
2023/12/17 07:47:49;;;;;;;0.55;0.50;;;16.80;68.00;;;;;;5014035;28;20163;-86
2023/12/17 07:50:15;;;;;;;1.77;0.63;;;16.90;67.80;;;;;;4980794;28;20171;-86
2023/12/17 07:52:41;;;;;;;2.53;0.82;;;16.90;67.60;;;;;;5013989;28;20166;-85
2023/12/17 07:55:07;;;;;;;0.70;0.50;;;16.90;67.60;;;;;;5014515;28;20170;-86
2023/12/17 07:57:34;;;;;;;0.75;0.50;;;16.90;67.50;;;;;;4998653;28;20167;-86
2023/12/17 08:00:00;;;;;;;1.55;0.57;;;16.90;67.40;;;;;;5015783;28;20163;-83
2023/12/17 08:02:34;;;;;;;2.25;0.50;;;17.00;67.60;;;;;;5010268;28;20266;-82
2023/12/17 08:05:17;;;;;;;1.20;0.60;;;17.00;67.60;;;;;;5004266;28;20173;-83
2023/12/17 08:07:44;;;;;;;1.90;0.60;;;17.00;67.00;;;;;;5015787;28;20190;-85
2023/12/17 08:10:12;;;;;;;0.75;0.60;;;17.10;67.10;;;;;;5027544;28;20218;-85
2023/12/17 08:12:46;;;;;;;1.67;0.52;;;17.10;66.80;;;;;;5040896;28;20206;-82
2023/12/17 08:15:18;;;;;;;1.95;0.65;;;17.20;66.70;;;;;;5002592;28;20270;-87
2023/12/17 08:18:22;;;;;;;1.40;0.68;;;17.20;66.00;;;;;;5001276;28;20151;-87
2023/12/17 08:20:58;;;;;;;1.35;0.77;;;17.40;65.40;;;;;;4956262;28;20224;-85
2023/12/17 08:27:13;;;;;;;;;;;;;;;;;;;;;
2023/12/17 08:29:40;;;;;;;0.98;0.57;;;17.60;65.20;;;;;;4869477;29;20570;-86
2023/12/17 08:32:58;;;;;;;0.98;0.47;;;17.50;65.40;;;;;;4878260;29;20188;-86
2023/12/17 08:35:52;;;;;;;2.25;0.70;;;17.50;65.20;;;;;;4875167;29;20247;-86
2023/12/17 08:38:48;;;;;;;;;;;;;;;;;;;;;
2023/12/17 08:44:54;;;;;;;2.53;0.70;;;17.70;65.20;;;;;;4717701;30;20190;-84
2023/12/17 08:47:20;;;;;;;2.63;0.80;;;17.70;64.20;;;;;;4701963;30;20243;-85
2023/12/17 08:49:46;;;;;;;7.22;0.65;;;17.70;65.30;;;;;;4716584;30;20199;-87
2023/12/17 08:52:20;;;;;;;3.53;0.95;;;17.70;65.10;;;;;;4717953;30;20219;-87
2023/12/17 08:55:28;;;;;;;;;;;;;;;;;;;;;
2023/12/17 08:58:29;;;;;;;;;;;;;;;;;;;;;
2023/12/17 09:01:05;;;;;;;1.95;0.73;;;17.80;65.00;;;;;;4715176;30;20189;-88
2023/12/17 09:10:42;;;;;;;3.30;1.05;;;17.70;65.30;;;;;;4789864;29;20183;-88
2023/12/17 09:13:11;;;;;;;7.25;0.98;;;17.80;64.90;;;;;;4788916;30;20203;-87
2023/12/17 09:15:38;;;;;;;4.28;0.65;;;17.80;65.30;;;;;;4769966;30;20203;-86
2023/12/17 09:18:05;;;;;;;4.63;0.80;;;17.90;64.40;;;;;;4764419;30;20234;-84
2023/12/17 09:20:35;;;;;;;5.60;1.00;;;17.90;64.30;;;;;;4770918;30;20246;-85
2023/12/17 09:23:05;;;;;;;3.70;1.20;;;17.90;65.20;;;;;;4798134;30;20238;-86
2023/12/17 09:25:35;;;;;;;3.83;1.15;;;17.90;64.90;;;;;;4768677;30;20200;-84
2023/12/17 09:28:04;;;;;;;3.53;0.70;;;18.00;64.40;;;;;;4732065;30;20209;-86
2023/12/17 09:30:37;;;;;;;3.05;0.70;;;18.00;65.00;;;;;;4743210;30;20201;-87
2023/12/17 09:33:25;;;;;;;4.65;0.93;;;17.90;64.80;;;;;;4743681;30;20229;-88
2023/12/17 09:36:06;;;;;;;4.10;0.80;;;18.10;64.80;;;;;;4751010;30;20570;-88
2023/12/17 09:39:38;;;;;;;2.85;0.50;;;18.00;64.50;;;;;;4801869;29;20221;-84
2023/12/17 09:42:09;;;;;;;2.33;0.70;;;18.10;64.40;;;;;;4766454;30;20199;-86
2023/12/17 09:45:14;;;;;;;3.13;0.85;;;18.20;63.40;;;;;;4749593;30;20235;-86
2023/12/17 09:48:49;;;;;;;3.42;0.70;;;18.20;64.00;;;;;;4773670;29;20239;-86
2023/12/17 09:51:17;;;;;;;4.88;0.88;;;18.20;63.90;;;;;;4785003;29;20183;-87
2023/12/17 09:53:53;;;;;;;5.10;0.70;;;18.20;64.30;;;;;;4768808;30;20269;-87
2023/12/17 09:56:36;;;;;;;3.22;0.70;;;18.10;64.80;;;;;;4771437;30;20207;-86
2023/12/17 09:59:39;;;;;;;4.40;0.98;;;18.10;64.80;;;;;;4745003;30;20189;-86
2023/12/17 10:02:29;;;;;;;2.78;0.80;;;18.10;65.40;;;;;;4722002;30;20198;-88
2023/12/17 10:05:03;;;;;;;6.32;0.80;;;18.20;65.60;;;;;;4735640;30;20185;-85
2023/12/17 10:08:00;;;;;;;2.63;0.88;;;18.10;65.60;;;;;;4739011;30;20221;-86
2023/12/17 10:10:30;;;;;;;3.90;0.90;;;18.10;65.60;;;;;;4758700;30;20263;-85
2023/12/17 10:13:00;;;;;;;9.70;0.88;;;18.10;65.10;;;;;;4748118;30;20227;-87
2023/12/17 10:15:28;;;;;;;3.13;0.82;;;18.10;65.10;;;;;;4768630;30;20291;-86
2023/12/17 10:18:08;;;;;;;5.68;0.63;;;18.00;65.70;;;;;;4780554;30;20192;-87
2023/12/17 10:21:17;;;;;;;3.05;0.80;;;17.90;65.70;;;;;;4776633;30;20284;-87
2023/12/17 10:23:53;;;;;;;5.47;0.80;;;17.90;64.20;;;;;;4750014;29;20282;-86
2023/12/17 10:26:43;;;;;;;3.67;0.65;;;18.00;64.90;;;;;;4832150;29;21013;-86
2023/12/17 10:29:13;;;;;;;4.35;0.70;;;18.00;64.10;;;;;;4826857;29;20595;-85
2023/12/17 10:31:41;;;;;;;2.25;0.70;;;18.00;64.60;;;;;;4813805;29;20187;-86
2023/12/17 10:34:18;;;;;;;3.42;0.77;;;18.10;64.20;;;;;;4833785;29;20257;-86
2023/12/17 10:36:51;;;;;;;6.40;0.80;;;18.00;64.90;;;;;;4830669;29;20185;-86
2023/12/17 10:39:19;;;;;;;2.97;0.82;;;18.10;64.60;;;;;;4848388;29;20749;-83
2023/12/17 10:41:48;;;;;;;1.33;0.60;;;18.10;64.90;;;;;;4883738;28;20202;-86
2023/12/17 10:44:14;;;;;;;1.90;0.68;;;18.00;65.80;;;;;;4962351;28;20560;-85
2023/12/17 10:46:42;;;;;;;3.60;0.70;;;18.10;64.50;;;;;;4965730;28;20199;-85
2023/12/17 10:49:10;;;;;;;2.47;0.60;;;18.00;64.10;;;;;;4980208;28;20629;-86
2023/12/17 10:51:40;;;;;;;4.05;0.70;;;18.10;65.00;;;;;;4991046;28;20186;-86
2023/12/17 10:54:06;;;;;;;2.65;0.80;;;18.10;64.90;;;;;;4964935;28;20163;-87
2023/12/17 10:56:34;;;;;;;2.97;0.70;;;18.10;64.70;;;;;;5009071;28;20187;-86
2023/12/17 10:59:02;;;;;;;1.92;0.80;;;18.10;64.80;;;;;;5008874;28;20271;-85
2023/12/17 11:01:37;;;;;;;3.35;0.60;;;18.10;65.40;;;;;;4978558;28;20319;-87
2023/12/17 11:04:04;;;;;;;2.33;0.60;;;18.10;65.20;;;;;;4961842;28;20940;-85
2023/12/17 11:06:32;;;;;;;1.35;0.63;;;18.10;65.40;;;;;;4963520;28;20211;-84
2023/12/17 11:08:59;;;;;;;1.13;0.50;;;18.20;66.00;;;;;;4978491;28;20179;-84
2023/12/17 11:11:26;;;;;;;0.70;0.60;;;18.10;65.00;;;;;;4977932;28;20188;-84
2023/12/17 11:13:53;;;;;;;1.52;0.60;;;18.10;66.10;;;;;;4991053;28;20328;-85
2023/12/17 11:16:22;;;;;;;2.50;0.75;;;18.10;65.60;;;;;;4959056;28;20191;-84
2023/12/17 11:18:48;;;;;;;2.78;0.60;;;18.10;65.80;;;;;;5006810;28;20187;-85
2023/12/17 11:21:14;;;;;;;2.65;0.55;;;18.10;66.30;;;;;;5010158;28;20167;-84
2023/12/17 11:23:49;;;;;;;2.05;0.50;;;18.20;65.20;;;;;;4993563;28;20174;-85
2023/12/17 11:26:17;;;;;;;0.77;0.50;;;18.10;65.20;;;;;;4992677;28;20190;-85
2023/12/17 11:28:46;;;;;;;0.90;0.40;;;18.20;64.80;;;;;;5030696;28;20281;-84
2023/12/17 11:31:14;;;;;;;1.33;0.50;;;18.20;65.00;;;;;;4980126;28;20269;-85
2023/12/17 11:33:44;;;;;;;2.45;0.80;;;18.20;64.70;;;;;;4963859;28;20229;-85
2023/12/17 11:36:12;;;;;;;1.00;0.50;;;18.20;65.50;;;;;;4965245;28;20228;-86
2023/12/17 11:38:40;;;;;;;0.75;0.60;;;18.20;65.10;;;;;;4981623;28;20278;-86
2023/12/17 11:41:07;;;;;;;2.28;0.55;;;18.20;64.90;;;;;;4983751;28;20541;-85
2023/12/17 11:43:35;;;;;;;1.35;0.80;;;18.20;65.10;;;;;;4999048;28;20159;-85
2023/12/17 11:50:26;;;;;;;;;;;;;;;;;;;;;
2023/12/17 12:22:58;;;;;;;1.15;0.50;;;18.20;64.90;;;;;;6047762;22;1543720;-86
2023/12/17 12:25:40;;;;;;;5.20;0.60;;;18.20;65.00;;;;;;6051356;23;20194;-88
2023/12/17 12:33:37;;;;;;;4.15;0.60;;;18.20;66.00;;;;;;6317110;22;20210;-87
2023/12/17 12:36:13;;;;;;;1.48;0.60;;;18.20;64.30;;;;;;6314011;22;20136;-87
2023/12/17 12:38:41;;;;;;;1.15;0.75;;;18.20;65.10;;;;;;6238733;22;20186;-86
2023/12/17 12:41:12;;;;;;;1.75;0.68;;;18.20;65.60;;;;;;6266268;22;20529;-89
2023/12/17 12:43:39;;;;;;;4.03;1.13;;;18.10;65.10;;;;;;6266948;22;20162;-85
2023/12/17 12:46:07;;;;;;;0.70;0.50;;;18.10;65.40;;;;;;6265631;22;20139;-87
2023/12/17 12:49:02;;;;;;;0.98;0.47;;;18.20;65.20;;;;;;6269028;22;20147;-89
2023/12/17 12:52:22;;;;;;;;;;;;;;;;;;;;;
2023/12/17 12:55:04;;;;;;;1.60;0.38;;;18.10;65.30;;;;;;6182329;23;20257;-88
2023/12/17 12:57:37;;;;;;;0.40;0.40;;;18.20;64.60;;;;;;6163693;23;20206;-89
2023/12/17 13:00:16;;;;;;;1.77;0.70;;;18.20;64.90;;;;;;6118506;23;20160;-88
2023/12/17 13:02:55;;;;;;;1.02;0.50;;;18.20;65.40;;;;;;6114503;23;20587;-90
2023/12/17 13:06:20;;;;;;;2.90;0.57;;;18.20;65.50;;;;;;6075118;23;20158;-87
2023/12/17 13:08:46;;;;;;;1.77;0.68;;;18.20;65.50;;;;;;6125163;23;20162;-89
2023/12/17 13:11:18;;;;;;;1.50;0.50;;;18.10;65.50;;;;;;6131159;23;20144;-86
2023/12/17 13:14:07;;;;;;;0.90;0.40;;;18.10;66.10;;;;;;6131086;23;20242;-89
2023/12/17 13:16:39;;;;;;;2.05;0.50;;;18.10;66.10;;;;;;6115621;23;20151;-90
2023/12/17 13:19:09;;;;;;;4.63;0.50;;;18.10;66.10;;;;;;6114291;23;20203;-90
2023/12/17 13:21:49;;;;;;;0.82;0.45;;;18.10;65.90;;;;;;6153645;23;20150;-89
2023/12/17 13:24:18;;;;;;;3.90;0.73;;;18.00;66.20;;;;;;6219530;23;20142;-89
2023/12/17 13:26:45;;;;;;;0.90;0.50;;;18.10;65.00;;;;;;6281403;22;20953;-86
2023/12/17 13:29:11;;;;;;;2.13;0.60;;;18.10;65.00;;;;;;6284718;22;20148;-86
2023/12/17 13:31:36;;;;;;;2.58;0.60;;;18.10;65.20;;;;;;6260403;22;20571;-88
2023/12/17 13:34:04;;;;;;;0.75;0.40;;;18.10;65.50;;;;;;6287147;22;20563;-88
2023/12/17 13:36:30;;;;;;;1.83;0.60;;;18.10;66.80;;;;;;6289534;22;20132;-88
2023/12/17 13:38:57;;;;;;;2.13;0.85;;;18.10;66.10;;;;;;6285787;22;20198;-87
2023/12/17 13:41:22;;;;;;;3.15;0.65;;;18.00;65.90;;;;;;6286523;22;20162;-87
2023/12/17 13:43:50;;;;;;;1.52;0.60;;;18.00;66.20;;;;;;6287185;22;20143;-88
2023/12/17 13:46:19;;;;;;;2.80;0.50;;;18.00;66.30;;;;;;6286697;22;20150;-88
2023/12/17 13:48:44;;;;;;;0.47;0.40;;;18.10;65.90;;;;;;6249891;22;20184;-88
2023/12/17 13:51:11;;;;;;;1.48;0.40;;;18.10;64.80;;;;;;6251427;22;20145;-89
2023/12/17 13:53:42;;;;;;;1.73;0.68;;;18.10;65.40;;;;;;6254618;22;20208;-87
2023/12/17 13:56:09;;;;;;;0.98;0.50;;;18.10;64.80;;;;;;6227951;22;20191;-88
2023/12/17 13:58:36;;;;;;;1.77;0.65;;;18.10;64.70;;;;;;6252504;22;20176;-87
2023/12/17 14:01:02;;;;;;;0.63;0.40;;;18.10;65.20;;;;;;6252365;22;20129;-87
2023/12/17 14:04:05;;;;;;;1.58;0.50;;;18.10;65.80;;;;;;6257802;22;20218;-86
2023/12/17 14:06:36;;;;;;;2.03;0.50;;;18.10;65.30;;;;;;6256363;22;20145;-89
2023/12/17 14:09:02;;;;;;;0.82;0.50;;;18.20;64.70;;;;;;6233254;22;20197;-88
2023/12/17 14:11:28;;;;;;;1.50;0.70;;;18.20;64.70;;;;;;6231490;22;20144;-87
2023/12/17 14:13:56;;;;;;;0.95;0.50;;;18.30;64.80;;;;;;6232046;22;20231;-86
2023/12/17 14:16:28;;;;;;;0.85;0.50;;;18.20;64.60;;;;;;6257643;22;20791;-86
2023/12/17 14:18:55;;;;;;;0.73;0.40;;;18.20;65.20;;;;;;6261863;22;20873;-85
2023/12/17 14:21:20;;;;;;;0.65;0.40;;;18.20;65.40;;;;;;6264349;22;20167;-85
2023/12/17 14:23:51;;;;;;;0.60;0.30;;;18.20;66.10;;;;;;6289336;22;20462;-85
2023/12/17 14:26:17;;;;;;;1.85;0.63;;;18.20;65.80;;;;;;6265223;22;20284;-84
2023/12/17 14:28:44;;;;;;;1.23;0.50;;;18.20;66.00;;;;;;6311287;22;20143;-86
2023/12/17 14:31:10;;;;;;;0.68;0.40;;;18.20;65.10;;;;;;6260607;22;20144;-86
2023/12/17 14:33:36;;;;;;;1.42;0.55;;;18.20;64.90;;;;;;6312451;22;20202;-86
2023/12/17 14:36:01;;;;;;;1.67;0.57;;;18.20;65.10;;;;;;6260606;22;20232;-85
2023/12/17 14:38:32;;;;;;;1.17;0.70;;;18.20;65.00;;;;;;6313067;22;20171;-87